Time;durP1;ratioP1;P1;durP2;ratioP2;P2;SDS_P1;SDS_P2;PMS_P1;PMS_P2;Temp;Humidity;BMP_temperature;BMP_pressure;BME280_temperature;BME280_humidity;BME280_pressure;Samples;Min_cycle;Max_cycle;Signal;HPM_P1;HPM_P2
2021/01/08 00:00:38;;;;;;;0.20;0.10;;;;;;;2.37;100.00;99910.09;5008849;28;20452;-52
2021/01/08 00:03:04;;;;;;;0.30;0.20;;;;;;;2.50;100.00;99903.09;5013181;28;20872;-52
2021/01/08 00:05:30;;;;;;;0.20;0.20;;;;;;;2.61;100.00;99905.69;5012608;28;20448;-52
2021/01/08 00:07:56;;;;;;;0.20;0.10;;;;;;;2.51;99.77;99907.44;5013061;28;20445;-52
2021/01/08 00:10:22;;;;;;;0.20;0.10;;;;;;;2.26;100.00;99908.38;5004692;28;20480;-52
2021/01/08 00:12:48;;;;;;;0.20;0.10;;;;;;;2.23;100.00;99906.63;5009394;28;20489;-52
2021/01/08 00:15:15;;;;;;;0.20;0.10;;;;;;;2.22;100.00;99899.63;4995550;28;20457;-52
2021/01/08 00:17:41;;;;;;;0.20;0.10;;;;;;;2.10;100.00;99912.75;5012605;28;20449;-52
2021/01/08 00:20:09;;;;;;;0.27;0.17;;;;;;;2.12;100.00;99904.88;5001702;28;20458;-52
2021/01/08 00:22:35;;;;;;;0.20;0.10;;;;;;;2.20;100.00;99906.63;5012591;28;20483;-52
2021/01/08 00:25:01;;;;;;;0.20;0.10;;;;;;;1.95;100.00;99907.53;5012792;28;20448;-52
2021/01/08 00:27:27;;;;;;;0.20;0.10;;;;;;;1.91;100.00;99914.47;5012533;28;20452;-52
2021/01/08 00:29:53;;;;;;;0.30;0.20;;;;;;;2.06;100.00;99911.00;5012525;28;20464;-52
2021/01/08 00:32:20;;;;;;;0.20;0.10;;;;;;;1.84;100.00;99899.66;5012589;28;20500;-52
2021/01/08 00:34:48;;;;;;;0.20;0.10;;;;;;;1.85;100.00;99914.50;5011819;28;20453;-52
2021/01/08 00:37:15;;;;;;;0.20;0.10;;;;;;;1.81;100.00;99914.50;5012490;28;20452;-52
2021/01/08 00:39:42;;;;;;;0.20;0.10;;;;;;;1.76;100.00;99907.50;5012558;28;20460;-52
2021/01/08 00:42:09;;;;;;;0.20;0.10;;;;;;;1.72;100.00;99910.13;5004899;28;20493;-52
2021/01/08 00:44:35;;;;;;;0.20;0.10;;;;;;;1.69;100.00;99905.75;5008330;28;20499;-52
2021/01/08 00:47:04;;;;;;;0.20;0.10;;;;;;;1.50;100.00;99909.19;5015635;28;20452;-52
2021/01/08 00:49:31;;;;;;;0.20;0.10;;;;;;;1.52;100.00;99909.22;5016187;28;20448;-52
2021/01/08 00:51:57;;;;;;;0.20;0.10;;;;;;;1.64;100.00;99903.97;5015636;28;20488;-52
2021/01/08 00:54:23;;;;;;;0.20;0.10;;;;;;;1.73;100.00;99907.50;5016344;28;20507;-52
2021/01/08 00:56:51;;;;;;;0.20;0.10;;;;;;;1.76;100.00;99906.63;5016181;28;20463;-52
2021/01/08 00:59:17;;;;;;;0.20;0.10;;;;;;;1.45;100.00;99905.72;5008593;28;20460;-52
2021/01/08 01:01:43;;;;;;;0.20;0.10;;;;;;;1.74;100.00;99909.25;5014624;28;21069;-52
2021/01/08 01:04:10;;;;;;;0.20;0.10;;;;;;;1.68;100.00;99904.00;5016015;28;20448;-52
2021/01/08 01:06:36;;;;;;;0.20;0.10;;;;;;;1.80;100.00;99905.78;5015578;28;20518;-52
2021/01/08 01:09:03;;;;;;;0.20;0.10;;;;;;;1.84;100.00;99904.88;5016062;28;20872;-52
2021/01/08 01:11:30;;;;;;;0.30;0.10;;;;;;;1.80;100.00;99903.16;5015573;28;20499;-52
2021/01/08 01:13:58;;;;;;;0.20;0.10;;;;;;;2.06;100.00;99896.16;5016175;28;20484;-53
2021/01/08 01:16:27;;;;;;;0.20;0.10;;;;;;;2.01;100.00;99900.50;5015844;28;20460;-53
2021/01/08 01:18:56;;;;;;;0.20;0.10;;;;;;;1.96;100.00;99902.28;5015827;28;21029;-53
2021/01/08 01:21:24;;;;;;;0.20;0.10;;;;;;;1.98;100.00;99905.75;5015611;28;20945;-53
2021/01/08 01:23:50;;;;;;;0.20;0.10;;;;;;;2.23;100.00;99911.88;5015648;28;20534;-53
2021/01/08 01:26:16;;;;;;;0.20;0.10;;;;;;;2.07;100.00;99911.00;5015961;28;20452;-53
2021/01/08 01:28:43;;;;;;;0.20;0.10;;;;;;;2.07;100.00;99908.38;5015078;28;20479;-53
2021/01/08 01:31:09;;;;;;;0.20;0.10;;;;;;;2.15;100.00;99907.50;5015718;28;20496;-53
2021/01/08 01:33:35;;;;;;;0.20;0.20;;;;;;;2.19;100.00;99912.72;5015071;28;20879;-53
2021/01/08 01:36:05;;;;;;;0.20;0.13;;;;;;;2.26;100.00;99913.59;5015489;28;20441;-52
2021/01/08 01:38:31;;;;;;;0.20;0.10;;;;;;;2.33;100.00;99910.09;5015700;28;20468;-53
2021/01/08 01:40:57;;;;;;;0.20;0.20;;;;;;;2.38;100.00;99908.34;5015607;28;20793;-52
2021/01/08 01:43:24;;;;;;;0.20;0.10;;;;;;;2.44;100.00;99918.81;5015484;28;20484;-53
2021/01/08 01:45:50;;;;;;;0.20;0.10;;;;;;;2.60;100.00;99915.31;5015268;28;20449;-53
2021/01/08 01:48:16;;;;;;;0.20;0.10;;;;;;;2.45;100.00;99923.19;5014985;28;21008;-53
2021/01/08 01:50:42;;;;;;;0.20;0.10;;;;;;;2.52;100.00;99921.44;5015095;28;20611;-53
2021/01/08 01:53:09;;;;;;;0.20;0.20;;;;;;;2.55;100.00;99924.03;5015402;28;20807;-53
2021/01/08 01:55:36;;;;;;;0.20;0.10;;;;;;;2.66;100.00;99927.53;5014774;28;20949;-53
2021/01/08 01:58:03;;;;;;;0.20;0.10;;;;;;;2.58;100.00;99926.66;5012369;28;20942;-52
2021/01/08 02:00:29;;;;;;;0.20;0.10;;;;;;;2.61;100.00;99921.44;5014878;28;20957;-53
2021/01/08 02:03:03;;;;;;;0.20;0.10;;;;;;;2.54;100.00;99930.16;5015165;28;20484;-53
2021/01/08 02:05:30;;;;;;;0.20;0.10;;;;;;;2.67;100.00;99921.41;5014728;28;20930;-53
2021/01/08 02:08:08;;;;;;;0.20;0.10;;;;;;;2.60;100.00;99920.56;5014245;28;20942;-53
2021/01/08 02:10:40;;;;;;;0.20;0.10;;;;;;;2.58;100.00;99919.66;5014532;28;21020;-53
2021/01/08 02:13:10;;;;;;;0.30;0.20;;;;;;;2.63;100.00;99914.41;5014616;28;20913;-53
2021/01/08 02:15:37;;;;;;;0.20;0.10;;;;;;;2.58;100.00;99910.91;5014756;28;20460;-53
2021/01/08 02:18:03;;;;;;;0.20;0.10;;;;;;;2.59;100.00;99913.53;5013631;28;20507;-53
2021/01/08 02:20:32;;;;;;;0.20;0.10;;;;;;;2.64;100.00;99913.53;5014400;28;20452;-52
2021/01/08 02:23:07;;;;;;;0.20;0.10;;;;;;;2.54;100.00;99909.19;5014339;28;21001;-53
2021/01/08 02:25:35;;;;;;;0.20;0.10;;;;;;;2.55;100.00;99909.19;5002275;28;20444;-53
2021/01/08 02:28:04;;;;;;;0.20;0.10;;;;;;;2.67;100.00;99910.91;5014716;28;20453;-52
2021/01/08 02:30:37;;;;;;;0.20;0.20;;;;;;;2.74;100.00;99910.03;5014429;28;20448;-53
2021/01/08 02:33:04;;;;;;;0.20;0.10;;;;;;;2.61;100.00;99903.94;5013937;28;20483;-53
2021/01/08 02:35:32;;;;;;;0.20;0.10;;;;;;;2.59;100.00;99913.53;5014014;28;20448;-53
2021/01/08 02:37:59;;;;;;;0.20;0.10;;;;;;;2.51;100.00;99903.94;5014499;28;20503;-53
2021/01/08 02:40:27;;;;;;;0.20;0.10;;;;;;;2.56;100.00;99903.06;5008508;28;20464;-52
2021/01/08 02:42:59;;;;;;;0.20;0.10;;;;;;;2.44;100.00;99900.44;5011952;28;20476;-52
2021/01/08 02:45:25;;;;;;;0.20;0.10;;;;;;;2.41;100.00;99899.59;5014359;28;20507;-52
2021/01/08 02:47:51;;;;;;;0.20;0.10;;;;;;;2.47;100.00;99903.09;5013722;28;20518;-53
2021/01/08 02:50:18;;;;;;;0.30;0.30;;;;;;;2.48;100.00;99904.84;5014274;28;20548;-53
2021/01/08 02:52:48;;;;;;;0.20;0.10;;;;;;;2.51;100.00;99912.69;5014119;28;20492;-53
2021/01/08 02:55:19;;;;;;;0.60;0.60;;;;;;;2.49;100.00;99906.59;5012626;28;20444;-53
2021/01/08 02:57:45;;;;;;;0.20;0.10;;;;;;;2.44;100.00;99903.06;5014065;28;20452;-53
2021/01/08 03:00:12;;;;;;;0.20;0.10;;;;;;;2.36;100.00;99904.84;5006142;28;20514;-53
2021/01/08 03:02:39;;;;;;;0.20;0.10;;;;;;;2.34;100.00;99898.75;5013495;28;20475;-53
2021/01/08 03:05:06;;;;;;;0.20;0.10;;;;;;;2.42;100.00;99898.72;5013944;28;20503;-52
2021/01/08 03:07:32;;;;;;;0.20;0.10;;;;;;;2.47;100.00;99900.47;5013921;28;20460;-53
2021/01/08 03:09:59;;;;;;;0.30;0.20;;;;;;;2.50;100.00;99892.59;5013080;28;20522;-53
2021/01/08 03:12:29;;;;;;;0.30;0.30;;;;;;;2.68;100.00;99905.66;5013294;28;20496;-53
2021/01/08 03:14:57;;;;;;;0.20;0.10;;;;;;;2.70;100.00;99903.00;5013611;28;20791;-52
2021/01/08 03:17:23;;;;;;;0.20;0.20;;;;;;;2.67;100.00;99893.41;5004059;28;20866;-53
2021/01/08 03:19:49;;;;;;;0.20;0.20;;;;;;;2.55;100.00;99889.94;5013550;28;20462;-53
2021/01/08 03:22:15;;;;;;;0.20;0.10;;;;;;;2.66;100.00;99893.41;5013429;28;20994;-53
2021/01/08 03:24:41;;;;;;;0.20;0.10;;;;;;;2.63;100.00;99888.19;5013451;28;20448;-52
2021/01/08 03:27:07;;;;;;;0.20;0.10;;;;;;;2.67;100.00;99893.41;5013238;28;20448;-53
2021/01/08 03:29:33;;;;;;;0.20;0.10;;;;;;;2.67;100.00;99888.16;5013208;28;20519;-53
2021/01/08 03:32:00;;;;;;;0.20;0.10;;;;;;;2.60;100.00;99894.31;5000406;28;20496;-53
2021/01/08 03:34:26;;;;;;;0.20;0.10;;;;;;;2.68;100.00;99879.41;5013245;28;20448;-53
2021/01/08 03:36:52;;;;;;;0.20;0.10;;;;;;;2.63;100.00;99885.56;5005922;28;20962;-52
2021/01/08 03:39:18;;;;;;;0.20;0.10;;;;;;;2.59;100.00;99884.66;5006831;28;20457;-52
2021/01/08 03:41:44;;;;;;;0.30;0.30;;;;;;;2.54;100.00;99883.81;5013370;28;20503;-53
2021/01/08 03:44:10;;;;;;;0.20;0.10;;;;;;;2.50;100.00;99876.84;5013261;28;20563;-53
2021/01/08 03:46:36;;;;;;;0.20;0.10;;;;;;;2.52;100.00;99885.59;5013326;28;20823;-53
2021/01/08 03:49:05;;;;;;;0.20;0.10;;;;;;;2.49;100.00;99877.72;5013173;28;20456;-53
2021/01/08 03:51:32;;;;;;;0.20;0.10;;;;;;;2.53;100.00;99876.84;5012593;28;20480;-52
2021/01/08 03:53:58;;;;;;;0.20;0.10;;;;;;;2.56;100.00;99870.69;5013006;28;20874;-53
2021/01/08 03:56:25;;;;;;;0.20;0.10;;;;;;;2.55;100.00;99874.19;5008844;28;20988;-53
2021/01/08 03:58:51;;;;;;;0.20;0.10;;;;;;;2.57;100.00;99870.69;5006761;28;20460;-53
2021/01/08 04:01:17;;;;;;;0.20;0.10;;;;;;;2.60;100.00;99873.34;5013197;28;20517;-52
2021/01/08 04:03:43;;;;;;;0.20;0.10;;;;;;;2.49;100.00;99874.22;5013000;28;20480;-53
2021/01/08 04:06:10;;;;;;;0.20;0.10;;;;;;;2.52;100.00;99874.22;5012846;28;20449;-53
2021/01/08 04:08:36;;;;;;;0.20;0.10;;;;;;;2.55;100.00;99869.81;5012747;28;20452;-53
2021/01/08 04:11:02;;;;;;;0.20;0.10;;;;;;;2.64;100.00;99867.19;5011740;28;20492;-53
2021/01/08 04:13:28;;;;;;;0.20;0.10;;;;;;;2.60;100.00;99869.81;5012253;28;20491;-53
2021/01/08 04:15:55;;;;;;;0.20;0.10;;;;;;;2.65;100.00;99865.44;5013046;28;20452;-53
2021/01/08 04:18:21;;;;;;;0.20;0.10;;;;;;;2.63;100.00;99875.06;5012244;28;20457;-53
2021/01/08 04:20:48;;;;;;;0.20;0.10;;;;;;;2.61;100.00;99877.69;5012477;28;20518;-53
2021/01/08 04:23:14;;;;;;;0.20;0.10;;;;;;;2.66;100.00;99873.28;5012648;28;20476;-53
2021/01/08 04:25:40;;;;;;;0.20;0.10;;;;;;;2.64;100.00;99874.19;5012826;28;20449;-52
2021/01/08 04:28:07;;;;;;;0.20;0.10;;;;;;;2.54;100.00;99872.47;5012788;28;20518;-53
2021/01/08 04:30:33;;;;;;;0.20;0.10;;;;;;;2.56;100.00;99871.56;5012594;28;20950;-53
2021/01/08 04:32:59;;;;;;;0.27;0.20;;;;;;;2.43;100.00;99877.72;5012753;28;20488;-52
2021/01/08 04:35:25;;;;;;;0.20;0.10;;;;;;;2.55;100.00;99874.19;5013302;28;20456;-52
2021/01/08 04:37:51;;;;;;;0.20;0.10;;;;;;;2.41;100.00;99873.38;4996436;28;20454;-52
2021/01/08 04:40:19;;;;;;;0.20;0.10;;;;;;;2.29;100.00;99867.28;5012710;28;21004;-53
2021/01/08 04:42:45;;;;;;;0.20;0.10;;;;;;;2.39;100.00;99868.13;5012500;28;20478;-52
2021/01/08 04:45:12;;;;;;;0.20;0.10;;;;;;;2.43;100.00;99872.47;5012640;28;20452;-52
2021/01/08 04:47:38;;;;;;;0.20;0.10;;;;;;;2.52;100.00;99866.34;5012284;28;20471;-53
2021/01/08 04:50:05;;;;;;;0.20;0.10;;;;;;;2.57;100.00;99865.44;5012651;28;20452;-52
2021/01/08 04:52:32;;;;;;;0.20;0.10;;;;;;;2.46;100.00;99861.97;5011515;28;20492;-53
2021/01/08 04:55:02;;;;;;;0.20;0.10;;;;;;;2.51;100.00;99872.47;5012543;28;20593;-52
2021/01/08 04:57:32;;;;;;;0.20;0.10;;;;;;;2.71;100.00;99865.41;5012324;28;20452;-53
2021/01/08 04:59:59;;;;;;;0.20;0.10;;;;;;;2.77;100.00;99865.41;5005275;28;20454;-52
2021/01/08 05:02:25;;;;;;;0.20;0.10;;;;;;;3.11;100.00;99865.22;5011414;28;20469;-53
2021/01/08 05:04:52;;;;;;;0.20;0.10;;;;;;;2.95;100.00;99861.81;5012764;28;20449;-52
2021/01/08 05:07:19;;;;;;;0.20;0.10;;;;;;;3.27;100.00;99866.88;5012444;28;20523;-52
2021/01/08 05:09:45;;;;;;;0.20;0.10;;;;;;;3.30;100.00;99864.25;5012393;28;20457;-52
2021/01/08 05:12:12;;;;;;;0.20;0.13;;;;;;;3.21;100.00;99867.78;5010999;28;20906;-52
2021/01/08 05:14:40;;;;;;;0.20;0.10;;;;;;;3.35;100.00;99877.34;5012627;28;20453;-52
2021/01/08 05:17:06;;;;;;;0.20;0.10;;;;;;;3.27;100.00;99877.38;5012482;28;20579;-52
2021/01/08 05:19:33;;;;;;;0.20;0.10;;;;;;;3.19;100.00;99872.19;5012062;28;20946;-52
2021/01/08 05:22:00;;;;;;;0.20;0.10;;;;;;;3.13;100.00;99873.97;5012048;28;20477;-53
2021/01/08 05:24:29;;;;;;;0.20;0.10;;;;;;;3.06;100.00;99870.50;5012077;28;20453;-52
2021/01/08 05:26:55;;;;;;;0.20;0.10;;;;;;;3.25;100.00;99877.38;5012379;28;20507;-52
2021/01/08 05:29:27;;;;;;;0.20;0.10;;;;;;;3.23;100.00;99879.16;5012242;28;20456;-52
2021/01/08 05:31:54;;;;;;;0.20;0.10;;;;;;;3.12;100.00;99873.09;5005677;28;20492;-53
2021/01/08 05:34:28;;;;;;;0.20;0.10;;;;;;;2.89;100.00;99880.22;5015281;28;21030;-52
2021/01/08 05:36:57;;;;;;;0.20;0.10;;;;;;;3.10;100.00;99877.47;5015241;28;20507;-52
2021/01/08 05:39:23;;;;;;;0.20;0.10;;;;;;;3.06;100.00;99877.50;5015506;28;20453;-52
2021/01/08 05:41:49;;;;;;;0.20;0.13;;;;;;;3.06;100.00;99883.63;5015313;28;20506;-53
2021/01/08 05:44:16;;;;;;;0.20;0.10;;;;;;;3.15;100.00;99880.06;5015439;28;20941;-52
2021/01/08 05:46:47;;;;;;;0.20;0.10;;;;;;;3.10;100.00;99885.34;5014819;28;20576;-53
2021/01/08 05:49:15;;;;;;;0.20;0.10;;;;;;;3.14;100.00;99880.94;5014895;28;20858;-52
2021/01/08 05:51:43;;;;;;;0.20;0.10;;;;;;;3.07;100.00;99882.75;5015408;28;20496;-53
2021/01/08 05:54:10;;;;;;;0.20;0.10;;;;;;;3.02;100.00;99883.66;5014959;28;20456;-52
2021/01/08 05:56:37;;;;;;;0.20;0.10;;;;;;;3.09;100.00;99888.88;5015092;28;20449;-53
2021/01/08 05:59:08;;;;;;;0.20;0.10;;;;;;;3.10;100.00;99887.97;5007527;28;20551;-53
2021/01/08 06:01:38;;;;;;;0.20;0.10;;;;;;;2.90;100.00;99897.72;5014496;28;20527;-52
2021/01/08 06:04:07;;;;;;;0.20;0.10;;;;;;;2.91;100.00;99900.31;5014885;28;20818;-53
2021/01/08 06:06:45;;;;;;;0.20;0.10;;;;;;;2.90;100.00;99902.97;5014810;28;20449;-52
2021/01/08 06:09:13;;;;;;;0.20;0.10;;;;;;;2.91;100.00;99899.47;5014945;28;20455;-52
2021/01/08 06:11:43;;;;;;;0.20;0.10;;;;;;;3.06;100.00;99898.50;5014802;28;20534;-53
2021/01/08 06:14:12;;;;;;;0.20;0.10;;;;;;;2.89;100.00;99906.47;5014619;28;20449;-52
2021/01/08 06:16:42;;;;;;;0.20;0.10;;;;;;;2.98;100.00;99907.28;5012918;28;20464;-52
2021/01/08 06:19:09;;;;;;;0.20;0.10;;;;;;;2.83;100.00;99906.47;5014038;28;20454;-52
2021/01/08 06:21:42;;;;;;;0.20;0.10;;;;;;;2.82;100.00;99910.84;5014215;28;20515;-52
2021/01/08 06:24:25;;;;;;;0.20;0.10;;;;;;;3.12;100.00;99914.22;5014964;28;20451;-52
2021/01/08 06:26:52;;;;;;;0.20;0.10;;;;;;;2.98;100.00;99912.53;5014219;28;20520;-52
2021/01/08 06:29:24;;;;;;;0.20;0.10;;;;;;;3.05;100.00;99910.78;5014732;28;20536;-53
2021/01/08 06:31:53;;;;;;;0.20;0.10;;;;;;;2.93;100.00;99914.31;5014231;28;20488;-52
2021/01/08 06:34:26;;;;;;;0.20;0.10;;;;;;;2.89;100.00;99911.72;5014510;28;20849;-52
2021/01/08 06:37:14;;;;;;;0.20;0.10;;;;;;;2.83;100.00;99914.34;5012788;28;20460;-53
2021/01/08 06:39:45;;;;;;;0.20;0.10;;;;;;;2.84;100.00;99921.34;5014145;28;20453;-52
2021/01/08 06:42:29;;;;;;;0.20;0.10;;;;;;;2.80;100.00;99927.47;5014351;28;20488;-52
2021/01/08 06:44:57;;;;;;;0.20;0.20;;;;;;;2.73;100.00;99923.13;5015850;28;20483;-53
2021/01/08 06:47:23;;;;;;;0.20;0.10;;;;;;;2.87;100.00;99929.19;5016129;28;20793;-53
2021/01/08 06:49:53;;;;;;;0.20;0.10;;;;;;;2.72;100.00;99929.25;5013707;28;20515;-52
2021/01/08 06:52:20;;;;;;;0.20;0.10;;;;;;;2.84;100.00;99931.84;5013690;28;20496;-52
2021/01/08 06:54:54;;;;;;;0.20;0.10;;;;;;;3.09;100.00;99933.50;5013959;28;20896;-52
2021/01/08 06:57:22;;;;;;;0.20;0.10;;;;;;;2.88;100.00;99930.97;5012645;28;20460;-52
2021/01/08 07:00:04;;;;;;;0.20;0.10;;;;;;;2.86;100.00;99941.44;5006538;28;20461;-53
2021/01/08 07:02:31;;;;;;;0.20;0.20;;;;;;;3.05;100.00;99936.16;5013698;28;20510;-51
2021/01/08 07:04:58;;;;;;;0.20;0.10;;;;;;;2.60;100.00;99943.25;5014013;28;20445;-53
2021/01/08 07:07:27;;;;;;;0.20;0.10;;;;;;;2.92;100.00;99936.19;5013586;28;20956;-52
2021/01/08 07:09:57;;;;;;;0.57;0.57;;;;;;;3.01;100.00;99943.13;5013848;28;20456;-53
2021/01/08 07:12:24;;;;;;;0.20;0.10;;;;;;;2.95;100.00;99946.69;5013744;28;20507;-49
2021/01/08 07:14:51;;;;;;;0.20;0.10;;;;;;;2.93;100.00;99951.06;5012955;28;20816;-50
2021/01/08 07:17:28;;;;;;;0.20;0.10;;;;;;;3.00;100.00;99959.78;5013420;28;20499;-49
2021/01/08 07:19:55;;;;;;;0.20;0.10;;;;;;;3.09;100.00;99958.88;5013567;28;20452;-49
2021/01/08 07:22:22;;;;;;;0.20;0.10;;;;;;;2.93;100.00;99960.69;5013337;28;20464;-49
2021/01/08 07:24:49;;;;;;;0.20;0.10;;;;;;;2.76;100.00;99965.13;5013742;28;20449;-50
2021/01/08 07:27:26;;;;;;;0.20;0.10;;;;;;;2.67;100.00;99961.63;5013467;28;20453;-49
2021/01/08 07:30:00;;;;;;;0.20;0.10;;;;;;;2.74;100.00;99969.47;5012529;28;20491;-49
2021/01/08 07:32:40;;;;;;;0.20;0.10;;;;;;;2.79;100.00;99975.59;5013112;28;20504;-50
2021/01/08 07:35:32;;;;;;;0.20;0.10;;;;;;;2.77;100.00;99977.34;5013358;28;20452;-49
2021/01/08 07:38:13;;;;;;;0.20;0.10;;;;;;;2.68;100.00;99980.88;5013343;28;20452;-49
2021/01/08 07:40:39;;;;;;;0.20;0.10;;;;;;;2.72;100.00;99976.47;5013332;28;20476;-49
2021/01/08 07:43:07;;;;;;;0.20;0.10;;;;;;;2.96;100.00;99984.28;5012965;28;20475;-48
2021/01/08 07:46:06;;;;;;;0.20;0.10;;;;;;;2.79;100.00;99988.72;5012897;28;20460;-49
2021/01/08 07:48:38;;;;;;;0.20;0.10;;;;;;;2.85;100.00;99988.69;5003481;28;20448;-49
2021/01/08 07:51:10;;;;;;;0.20;0.10;;;;;;;2.62;100.00;99994.00;5011387;28;20945;-49
2021/01/08 07:53:43;;;;;;;0.20;0.10;;;;;;;2.73;100.00;99994.84;5013018;28;20500;-49
2021/01/08 07:56:11;;;;;;;0.47;0.47;;;;;;;2.69;100.00;100003.59;5012255;28;20480;-51
2021/01/08 07:58:37;;;;;;;0.20;0.10;;;;;;;2.74;100.00;100001.88;5006117;28;20465;-49
2021/01/08 08:01:05;;;;;;;0.20;0.10;;;;;;;2.74;100.00;100004.50;5014007;28;20940;-49
2021/01/08 08:03:31;;;;;;;0.20;0.10;;;;;;;2.61;100.00;100006.25;5012785;28;20847;-49
2021/01/08 08:06:04;;;;;;;0.20;0.10;;;;;;;2.75;100.00;100018.47;5013200;28;20468;-49
2021/01/08 08:08:31;;;;;;;0.20;0.10;;;;;;;2.83;100.00;100021.94;5012936;28;20452;-50
2021/01/08 08:11:10;;;;;;;0.20;0.10;;;;;;;2.73;100.00;100026.31;5011245;28;20514;-50
2021/01/08 08:13:36;;;;;;;0.20;0.10;;;;;;;2.65;100.00;100023.72;5008069;28;20496;-49
2021/01/08 08:16:04;;;;;;;0.20;0.10;;;;;;;2.77;100.00;100028.09;5012895;28;20452;-49
2021/01/08 08:18:31;;;;;;;0.20;0.20;;;;;;;2.73;100.00;100031.56;5012332;28;20484;-49
2021/01/08 08:21:16;;;;;;;0.20;0.10;;;;;;;2.62;100.00;100034.22;5012881;28;20475;-49
2021/01/08 08:23:42;;;;;;;0.20;0.10;;;;;;;2.73;100.00;100031.56;5012419;28;20476;-49
2021/01/08 08:26:08;;;;;;;0.20;0.10;;;;;;;2.61;100.00;100039.47;5012570;28;20594;-49
2021/01/08 08:28:34;;;;;;;0.20;0.10;;;;;;;2.85;100.00;100043.81;5010902;28;20515;-51
2021/01/08 08:31:01;;;;;;;0.20;0.10;;;;;;;2.75;100.00;100048.22;5012211;28;20869;-51
2021/01/08 08:33:27;;;;;;;0.20;0.10;;;;;;;3.05;100.00;100042.03;5012659;28;20472;-50
2021/01/08 08:35:54;;;;;;;0.20;0.10;;;;;;;3.03;100.00;100046.44;5012454;28;20849;-50
2021/01/08 08:38:20;;;;;;;0.20;0.10;;;;;;;3.28;100.00;100047.22;5012780;28;20804;-50
2021/01/08 08:40:46;;;;;;;0.20;0.20;;;;;;;3.00;100.00;100054.28;5012382;28;20515;-49
2021/01/08 08:43:21;;;;;;;0.30;0.20;;;;;;;3.11;100.00;100057.75;5011028;28;20476;-51
2021/01/08 08:45:47;;;;;;;0.20;0.10;;;;;;;2.96;100.00;100061.28;5012434;28;20448;-49
2021/01/08 08:48:14;;;;;;;0.20;0.10;;;;;;;2.93;100.00;100061.31;5012727;28;20453;-51
2021/01/08 08:50:43;;;;;;;0.20;0.10;;;;;;;3.16;100.00;100066.53;5012278;28;20460;-48
2021/01/08 08:53:11;;;;;;;0.20;0.10;;;;;;;2.95;100.00;100050.81;5012598;28;20907;-49
2021/01/08 08:55:37;;;;;;;0.20;0.10;;;;;;;3.17;100.00;100073.53;5012161;28;20452;-49
2021/01/08 08:58:10;;;;;;;0.20;0.10;;;;;;;3.00;100.00;100063.91;5009922;28;20489;-50
2021/01/08 09:00:39;;;;;;;0.77;0.77;;;;;;;3.05;100.00;100070.91;5012539;28;20522;-49
2021/01/08 09:03:22;;;;;;;0.20;0.10;;;;;;;2.83;100.00;100063.94;5011881;28;20468;-49
2021/01/08 09:05:50;;;;;;;0.20;0.10;;;;;;;2.88;100.00;100075.31;5012115;28;20440;-49
2021/01/08 09:08:36;;;;;;;0.20;0.10;;;;;;;3.05;100.00;100065.66;5014472;28;20484;-49
2021/01/08 09:11:15;;;;;;;0.20;0.10;;;;;;;3.14;100.00;100081.38;5003621;28;20444;-49
2021/01/08 09:14:01;;;;;;;0.20;0.10;;;;;;;3.42;100.00;100073.44;5014820;28;20492;-50
2021/01/08 09:16:48;;;;;;;0.20;0.10;;;;;;;3.26;100.00;100076.09;5015988;28;20445;-49
2021/01/08 09:19:30;;;;;;;0.20;0.17;;;;;;;3.12;100.00;100088.41;5004837;28;20456;-49
2021/01/08 09:21:58;;;;;;;0.20;0.10;;;;;;;3.29;100.00;100085.75;5015519;28;20984;-50
2021/01/08 09:24:30;;;;;;;0.20;0.10;;;;;;;3.40;100.00;100086.56;5015981;28;20457;-51
2021/01/08 09:26:59;;;;;;;0.20;0.10;;;;;;;3.44;100.00;100090.09;5015641;28;20444;-49
2021/01/08 09:29:28;;;;;;;0.20;0.10;;;;;;;3.52;100.00;100093.56;5014762;28;20492;-49
2021/01/08 09:31:56;;;;;;;0.20;0.10;;;;;;;3.06;100.00;100093.66;5015335;28;20489;-49
2021/01/08 09:34:23;;;;;;;0.20;0.10;;;;;;;3.28;100.00;100099.75;5015682;28;20452;-50
2021/01/08 09:36:51;;;;;;;0.50;0.50;;;;;;;3.39;100.00;100097.09;5015291;28;20444;-49
2021/01/08 09:39:18;;;;;;;0.20;0.10;;;;;;;3.38;100.00;100087.47;5015334;28;20452;-50
2021/01/08 09:41:54;;;;;;;0.20;0.10;;;;;;;3.31;100.00;100089.25;5013812;28;20824;-49
2021/01/08 09:44:28;;;;;;;0.20;0.10;;;;;;;3.11;100.00;100096.28;5015332;28;20843;-49
2021/01/08 09:46:57;;;;;;;0.20;0.10;;;;;;;3.37;100.00;100090.97;5015462;28;20510;-49
2021/01/08 09:49:24;;;;;;;0.20;0.10;;;;;;;3.15;100.00;100093.66;5015051;28;20471;-49
2021/01/08 09:52:03;;;;;;;0.20;0.10;;;;;;;3.27;100.00;100100.63;5015395;28;20978;-49
2021/01/08 09:54:39;;;;;;;0.20;0.10;;;;;;;3.36;100.00;100105.00;5015252;28;20445;-50
2021/01/08 09:57:08;;;;;;;0.20;0.10;;;;;;;3.35;100.00;100105.88;5015479;28;20487;-52
2021/01/08 09:59:34;;;;;;;0.20;0.10;;;;;;;3.51;100.00;100105.81;5007668;28;20464;-49
2021/01/08 10:02:06;;;;;;;0.20;0.10;;;;;;;3.39;100.00;100108.47;5015357;28;20500;-50
2021/01/08 10:04:34;;;;;;;0.20;0.10;;;;;;;3.42;100.00;100108.47;5014404;28;20461;-49
2021/01/08 10:07:03;;;;;;;0.20;0.10;;;;;;;3.28;100.00;100111.13;5015009;28;20535;-51
2021/01/08 10:09:54;;;;;;;0.20;0.10;;;;;;;3.29;100.00;100106.78;5014824;28;20507;-51
2021/01/08 10:12:21;;;;;;;0.20;0.10;;;;;;;3.35;100.00;100106.75;5013302;28;20504;-48
2021/01/08 10:14:48;;;;;;;0.20;0.10;;;;;;;3.54;100.00;100107.56;5015137;28;20440;-49
2021/01/08 10:17:16;;;;;;;0.20;0.10;;;;;;;3.52;100.00;100102.31;5014901;28;20459;-50
2021/01/08 10:19:45;;;;;;;0.20;0.10;;;;;;;3.54;100.00;100108.44;5013464;28;20510;-49
2021/01/08 10:22:17;;;;;;;0.20;0.10;;;;;;;3.72;100.00;100107.50;5014508;28;20930;-49
2021/01/08 10:24:43;;;;;;;0.20;0.20;;;;;;;3.79;100.00;100111.84;5014993;28;20448;-51
2021/01/08 10:27:10;;;;;;;0.20;0.10;;;;;;;3.55;100.00;100112.81;5014859;28;20453;-49
2021/01/08 10:29:41;;;;;;;0.20;0.10;;;;;;;3.68;100.00;100113.63;5014500;28;20444;-49
2021/01/08 10:32:13;;;;;;;0.20;0.20;;;;;;;3.70;100.00;100111.00;5015346;28;20949;-49
2021/01/08 10:34:42;;;;;;;0.20;0.10;;;;;;;3.77;100.00;100105.72;5013194;28;20961;-49
2021/01/08 10:37:15;;;;;;;0.20;0.10;;;;;;;3.90;100.00;100110.94;5014496;28;21004;-49
2021/01/08 10:39:41;;;;;;;0.20;0.10;;;;;;;3.74;100.00;100107.50;5014038;28;20453;-50
2021/01/08 10:42:09;;;;;;;0.20;0.10;;;;;;;3.94;100.00;100107.41;5014202;28;20519;-50
2021/01/08 10:44:42;;;;;;;0.20;0.10;;;;;;;3.93;100.00;100110.91;5015765;28;20448;-50
2021/01/08 10:47:09;;;;;;;0.20;0.10;;;;;;;3.70;100.00;100106.66;5015549;28;20479;-49
2021/01/08 10:49:53;;;;;;;0.20;0.10;;;;;;;3.78;100.00;100114.47;5013256;28;20468;-49
2021/01/08 10:52:20;;;;;;;0.20;0.10;;;;;;;3.76;100.00;100111.88;5015769;28;21072;-49
2021/01/08 10:54:46;;;;;;;0.20;0.10;;;;;;;3.66;100.00;100115.41;5015986;28;20452;-49
2021/01/08 10:57:12;;;;;;;0.20;0.10;;;;;;;3.72;100.00;100118.03;5015425;28;20449;-49
2021/01/08 10:59:38;;;;;;;0.20;0.13;;;;;;;4.01;100.00;100109.13;5013942;28;20942;-51
2021/01/08 11:02:04;;;;;;;0.20;0.10;;;;;;;4.05;100.00;100113.50;5014281;28;20879;-49
2021/01/08 11:04:39;;;;;;;0.20;0.10;;;;;;;3.82;100.00;100103.94;5013074;28;20544;-49
2021/01/08 11:07:05;;;;;;;0.20;0.10;;;;;;;3.87;100.00;100101.31;5014378;28;20457;-49
2021/01/08 11:09:31;;;;;;;0.20;0.10;;;;;;;3.72;100.00;100109.25;5015805;28;20453;-49
2021/01/08 11:11:58;;;;;;;0.20;0.13;;;;;;;3.83;100.00;100104.81;5013616;28;20515;-49
2021/01/08 11:14:24;;;;;;;0.20;0.10;;;;;;;4.07;100.00;100088.91;5013838;28;20464;-49
2021/01/08 11:16:50;;;;;;;0.20;0.10;;;;;;;3.83;100.00;100095.16;5017146;28;20487;-49
2021/01/08 11:19:16;;;;;;;0.20;0.10;;;;;;;3.72;100.00;100099.63;5017628;28;20449;-49
2021/01/08 11:21:43;;;;;;;0.20;0.10;;;;;;;4.10;100.00;100093.28;5016795;28;20476;-49
2021/01/08 11:24:09;;;;;;;0.20;0.10;;;;;;;4.20;100.00;100087.09;5013907;28;20968;-50
2021/01/08 11:26:35;;;;;;;0.20;0.10;;;;;;;4.18;100.00;100090.63;5013470;28;20531;-49
2021/01/08 11:29:01;;;;;;;0.20;0.20;;;;;;;4.14;100.00;100081.88;5013554;28;20460;-51
2021/01/08 11:31:32;;;;;;;0.20;0.10;;;;;;;4.40;100.00;100087.00;5012876;28;20457;-49
2021/01/08 11:33:59;;;;;;;0.20;0.10;;;;;;;4.27;100.00;100083.56;5012588;28;20452;-49
2021/01/08 11:36:25;;;;;;;0.20;0.10;;;;;;;4.25;100.00;100082.69;5013858;28;20453;-49
2021/01/08 11:38:51;;;;;;;0.20;0.10;;;;;;;4.08;100.00;100087.16;5013649;28;20872;-49